KVEL/VEL METAR and TAF weather

Enter ICAO airport designator
Station Type Date Time Source
KVEL METAR 2019/08/23 16:53 UTC NOAA

KVEL 231653Z AUTO 10004KT 10SM CLR 26/M01 A3002 RMK AO2 SLP099 T02561011


Station Type Date Time Source
KVEL Decoded METAR 2019/08/23 16:53 UTC NOAA

Station name not available
Aug 23, 2019 - 12:53 PM EDT / 2019.08.23 1653 UTC
Wind: from the E (100 degrees) at 5 MPH (4 KT):0
Visibility: 10 mile(s):0
Sky conditions: clear
Temperature: 78.1 F (25.6 C)
Dew Point: 30.0 F (-1.1 C)
Relative Humidity: 17%
Pressure (altimeter): 30.02 in. Hg (1016 hPa)
ob: KVEL 231653Z AUTO 10004KT 10SM CLR 26/M01 A3002 RMK AO2 SLP099 T02561011
cycle: 17

Station Type Date Time Source
KVEL TAF 2019/08/23 18:30 UTC NOAA

TAF KVEL 231727Z 2318/2418 23005KT P6SM FEW120
FM232000 23011KT P6SM FEW120 FEW250
FM232200 24015G23KT P6SM FEW120 FEW250
FM240000 30011G19KT P6SM FEW120 FEW250
FM240300 31006KT P6SM FEW120 SCT250

Example: see airport list